createdAt,value
2023-08-07T00:01:02.896Z,13.50
2023-08-07T00:04:04.799Z,13.50
2023-08-07T00:07:06.636Z,13.50
2023-08-07T00:10:08.701Z,13.50
2023-08-07T00:13:10.354Z,13.50
2023-08-07T00:16:12.344Z,13.50
2023-08-07T00:19:14.122Z,13.50
2023-08-07T00:22:15.837Z,13.50
2023-08-07T00:25:17.558Z,13.50
2023-08-07T00:28:19.221Z,13.40
2023-08-07T00:31:20.887Z,13.40
2023-08-07T00:34:22.658Z,13.40
2023-08-07T00:37:24.316Z,13.40
2023-08-07T00:40:25.945Z,13.40
2023-08-07T00:43:27.681Z,13.40
2023-08-07T00:46:31.092Z,13.30
2023-08-07T00:49:32.955Z,13.30
2023-08-07T00:52:34.729Z,13.30
2023-08-07T00:55:36.893Z,13.30
2023-08-07T00:58:38.900Z,13.30
2023-08-07T01:01:40.613Z,13.30
2023-08-07T01:04:42.247Z,13.30
2023-08-07T01:07:44.007Z,13.30
2023-08-07T01:11:03.461Z,13.30
2023-08-07T01:14:34.666Z,13.30
2023-08-07T01:17:36.561Z,13.30
2023-08-07T01:20:38.446Z,13.30
2023-08-07T01:23:40.044Z,13.30
2023-08-07T01:26:45.929Z,13.20
2023-08-07T01:30:14.835Z,13.20
2023-08-07T01:33:33.203Z,13.20
2023-08-07T01:36:35.658Z,13.20
2023-08-07T01:39:38.103Z,13.20
2023-08-07T01:42:39.985Z,13.20
2023-08-07T01:45:41.692Z,13.20
2023-08-07T01:48:43.321Z,13.20
2023-08-07T01:51:44.930Z,13.20
2023-08-07T01:54:46.677Z,13.10
2023-08-07T01:57:48.282Z,13.10
2023-08-07T02:00:49.931Z,13.20
2023-08-07T02:03:51.666Z,13.20
2023-08-07T02:06:53.615Z,13.20
2023-08-07T02:09:55.394Z,13.20
2023-08-07T02:13:00.265Z,13.30
2023-08-07T02:16:01.935Z,13.30
2023-08-07T02:19:03.555Z,13.30
2023-08-07T02:22:06.896Z,13.30
2023-08-07T02:25:09.073Z,13.30
2023-08-07T02:28:10.719Z,13.40
2023-08-07T02:31:12.325Z,13.40
2023-08-07T02:34:13.990Z,13.40
2023-08-07T02:37:15.796Z,13.40
2023-08-07T02:40:19.787Z,13.40
2023-08-07T02:43:21.541Z,13.40
2023-08-07T02:46:23.333Z,13.40
2023-08-07T02:49:25.047Z,13.40
2023-08-07T02:52:26.717Z,13.40
2023-08-07T02:55:28.314Z,13.50
2023-08-07T02:58:30.213Z,13.50
2023-08-07T03:01:31.906Z,13.40
2023-08-07T03:04:33.596Z,13.40
2023-08-07T03:07:35.536Z,13.40
2023-08-07T03:10:37.140Z,13.40
2023-08-07T03:13:38.733Z,13.40
2023-08-07T03:16:40.362Z,13.50
2023-08-07T03:19:44.307Z,13.40
2023-08-07T03:22:45.924Z,13.40
2023-08-07T03:25:47.674Z,13.40
2023-08-07T03:28:49.888Z,13.50
2023-08-07T03:31:51.994Z,13.50
2023-08-07T03:34:53.691Z,13.50
2023-08-07T03:37:55.418Z,13.50
2023-08-07T03:40:59.390Z,13.50
2023-08-07T03:44:01.043Z,13.50
2023-08-07T03:47:02.749Z,13.50
2023-08-07T03:50:07.065Z,13.50
2023-08-07T03:53:08.906Z,13.50
2023-08-07T03:56:10.645Z,13.50
2023-08-07T03:59:12.237Z,13.50
2023-08-07T04:02:13.842Z,13.50
2023-08-07T04:05:15.567Z,13.50
2023-08-07T04:08:17.240Z,13.40
2023-08-07T04:11:19.007Z,13.50
2023-08-07T04:14:20.667Z,13.50
2023-08-07T04:17:22.389Z,13.50
2023-08-07T04:20:25.434Z,13.40
2023-08-07T04:23:27.310Z,13.50
2023-08-07T04:26:28.929Z,13.40
2023-08-07T04:29:30.577Z,13.40
2023-08-07T04:32:32.316Z,13.50
2023-08-07T04:35:34.113Z,13.50
2023-08-07T04:38:35.799Z,13.50
2023-08-07T04:41:37.452Z,13.50
2023-08-07T04:44:39.312Z,13.60
2023-08-07T04:47:41.450Z,13.60
2023-08-07T04:50:43.273Z,13.60
2023-08-07T04:53:46.593Z,13.60
2023-08-07T04:56:48.269Z,13.60
2023-08-07T04:59:49.949Z,13.60
2023-08-07T05:02:52.307Z,13.60
2023-08-07T05:06:01.102Z,13.60
2023-08-07T05:09:04.314Z,13.60
2023-08-07T05:12:08.021Z,13.60
2023-08-07T05:15:10.205Z,13.70
2023-08-07T05:18:11.847Z,13.70
2023-08-07T05:21:13.558Z,13.70
2023-08-07T05:24:15.222Z,13.70
2023-08-07T05:27:17.007Z,13.70
2023-08-07T05:30:18.719Z,13.70
2023-08-07T05:33:20.424Z,13.70
2023-08-07T05:36:22.180Z,13.70
2023-08-07T05:39:24.077Z,13.70
2023-08-07T05:42:25.737Z,13.70
2023-08-07T05:45:27.437Z,13.70
2023-08-07T05:48:29.211Z,13.80
2023-08-07T05:51:31.116Z,13.90
2023-08-07T05:54:33.016Z,13.90
2023-08-07T05:57:35.257Z,13.90
2023-08-07T06:00:36.974Z,13.90
2023-08-07T06:03:39.007Z,13.90
2023-08-07T06:06:41.301Z,13.90
2023-08-07T06:09:43.016Z,13.90
2023-08-07T06:12:44.773Z,13.90
2023-08-07T06:15:46.543Z,13.90
2023-08-07T06:18:48.193Z,14.00
2023-08-07T06:21:49.968Z,14.00
2023-08-07T06:24:51.713Z,14.00
2023-08-07T06:27:54.655Z,14.00
2023-08-07T06:31:05.580Z,13.90
2023-08-07T06:34:07.196Z,13.80
2023-08-07T06:37:09.322Z,13.80
2023-08-07T06:40:11.495Z,13.80
2023-08-07T06:43:13.104Z,13.70
2023-08-07T06:46:14.879Z,13.70
2023-08-07T06:49:16.566Z,13.70
2023-08-07T06:52:18.270Z,13.70
2023-08-07T06:55:20.040Z,13.70
2023-08-07T06:58:21.722Z,13.60
2023-08-07T07:01:23.376Z,13.60
2023-08-07T07:04:25.066Z,13.70
2023-08-07T07:07:26.784Z,13.70
2023-08-07T07:10:28.402Z,13.60
2023-08-07T07:13:30.448Z,13.70
2023-08-07T07:16:32.203Z,13.70
2023-08-07T07:19:34.439Z,13.70
2023-08-07T07:22:36.629Z,13.80
2023-08-07T07:25:38.289Z,13.90
2023-08-07T07:28:42.874Z,13.90
2023-08-07T07:31:44.677Z,14.00
2023-08-07T07:34:46.343Z,14.10
2023-08-07T07:37:47.951Z,14.30
2023-08-07T07:40:49.594Z,14.30
2023-08-07T07:43:51.330Z,14.30
2023-08-07T07:46:52.969Z,14.20
2023-08-07T07:50:07.458Z,14.30
2023-08-07T07:53:09.424Z,14.30
2023-08-07T07:56:11.436Z,14.40
2023-08-07T07:59:13.664Z,14.50
2023-08-07T08:02:16.962Z,14.50
2023-08-07T08:05:18.938Z,14.50
2023-08-07T08:08:20.969Z,14.60
2023-08-07T08:11:22.689Z,14.60
2023-08-07T08:14:24.499Z,14.50
2023-08-07T08:17:27.048Z,14.60
2023-08-07T08:20:30.946Z,14.60
2023-08-07T08:23:32.942Z,14.70
2023-08-07T08:26:34.626Z,14.70
2023-08-07T08:29:36.411Z,14.60
2023-08-07T08:32:38.239Z,14.70
2023-08-07T08:35:40.270Z,14.70
2023-08-07T08:38:41.920Z,14.70
2023-08-07T08:41:47.108Z,14.70
2023-08-07T08:44:56.815Z,14.70
2023-08-07T08:48:03.192Z,14.80
2023-08-07T08:51:05.527Z,14.80
2023-08-07T08:54:07.315Z,14.80
2023-08-07T08:57:12.835Z,14.60
2023-08-07T09:00:26.682Z,14.60
2023-08-07T09:03:28.632Z,14.60
2023-08-07T09:06:32.859Z,14.70
2023-08-07T09:09:34.967Z,14.70
2023-08-07T09:12:41.155Z,14.70
2023-08-07T09:15:48.879Z,14.80
2023-08-07T09:18:51.156Z,14.80
2023-08-07T09:21:52.787Z,15.00
2023-08-07T09:24:54.453Z,15.10
2023-08-07T09:27:58.062Z,15.20
2023-08-07T09:31:00.544Z,15.20
2023-08-07T09:34:06.069Z,15.20
2023-08-07T09:37:11.055Z,15.20
2023-08-07T09:40:13.531Z,15.20
2023-08-07T09:43:23.413Z,15.00
2023-08-07T09:46:27.738Z,14.80
2023-08-07T09:49:34.282Z,14.60
2023-08-07T09:52:35.906Z,14.50
2023-08-07T09:55:37.662Z,14.50
2023-08-07T09:58:39.370Z,14.30
2023-08-07T10:01:44.451Z,14.30
2023-08-07T10:04:46.533Z,14.30
2023-08-07T10:07:49.419Z,14.30
2023-08-07T10:10:51.262Z,14.10
2023-08-07T10:13:55.284Z,14.10
2023-08-07T10:16:57.343Z,14.10
2023-08-07T10:19:59.319Z,14.20
2023-08-07T10:23:11.680Z,14.20
2023-08-07T10:26:14.650Z,14.20
2023-08-07T10:29:21.874Z,14.30
2023-08-07T10:32:26.416Z,14.30
2023-08-07T10:35:32.326Z,14.50
2023-08-07T10:38:36.196Z,14.60
2023-08-07T10:41:47.534Z,14.70
2023-08-07T10:44:50.658Z,14.80
2023-08-07T10:48:13.831Z,14.90
2023-08-07T10:51:17.856Z,15.10
2023-08-07T10:54:20.554Z,15.30
2023-08-07T10:57:24.072Z,15.30
2023-08-07T11:00:29.231Z,15.40
2023-08-07T11:03:36.361Z,15.70
2023-08-07T11:06:39.761Z,15.90
2023-08-07T11:09:42.862Z,16.10
2023-08-07T11:12:44.620Z,16.20
2023-08-07T11:15:47.673Z,16.10
2023-08-07T11:18:50.511Z,16.10
2023-08-07T11:21:52.578Z,16.10
2023-08-07T11:24:54.328Z,16.10
2023-08-07T11:27:55.946Z,16.00
2023-08-07T11:30:58.465Z,16.00
2023-08-07T11:34:03.878Z,16.10
2023-08-07T11:37:05.881Z,16.10
2023-08-07T11:40:08.156Z,16.20
2023-08-07T11:43:10.801Z,16.40
2023-08-07T11:46:14.902Z,16.50
2023-08-07T11:49:16.709Z,16.70
2023-08-07T11:52:18.583Z,16.90
2023-08-07T11:55:20.333Z,17.00
2023-08-07T11:58:22.836Z,17.00
2023-08-07T12:01:27.491Z,17.10
2023-08-07T12:04:36.251Z,17.00
2023-08-07T12:07:39.061Z,17.00
2023-08-07T12:10:41.689Z,16.80
2023-08-07T12:13:46.357Z,16.60
2023-08-07T12:16:48.839Z,16.50
2023-08-07T12:19:51.665Z,16.50
2023-08-07T12:22:53.778Z,16.60
2023-08-07T12:25:58.922Z,16.50
2023-08-07T12:29:00.714Z,16.50
2023-08-07T12:32:03.754Z,16.50
2023-08-07T12:38:17.998Z,16.80
2023-08-07T12:44:24.825Z,17.10
2023-08-07T12:47:26.700Z,17.40
2023-08-07T12:50:29.415Z,17.80
2023-08-07T12:53:32.955Z,18.00
2023-08-07T12:56:34.657Z,18.20
2023-08-07T12:59:38.628Z,18.30
2023-08-07T13:02:47.773Z,18.40
2023-08-07T13:05:49.486Z,18.30
2023-08-07T13:08:51.148Z,18.10
2023-08-07T13:11:52.799Z,18.00
2023-08-07T13:14:54.628Z,18.20
2023-08-07T13:17:56.236Z,18.40
2023-08-07T13:20:58.341Z,18.70
2023-08-07T13:23:59.997Z,18.90
2023-08-07T13:27:01.712Z,19.10
2023-08-07T13:30:04.858Z,19.40
2023-08-07T13:33:06.571Z,19.70
2023-08-07T13:36:08.557Z,20.10
2023-08-07T13:39:10.343Z,20.30
2023-08-07T13:42:12.086Z,20.10
2023-08-07T13:45:14.589Z,19.90
2023-08-07T13:48:16.337Z,19.80
2023-08-07T13:51:18.904Z,19.80
2023-08-07T13:54:20.878Z,19.70
2023-08-07T13:57:23.516Z,19.90
2023-08-07T14:00:25.263Z,20.00
2023-08-07T14:03:27.239Z,19.90
2023-08-07T14:06:29.126Z,20.00
2023-08-07T14:09:30.832Z,20.10
2023-08-07T14:12:32.481Z,20.20
2023-08-07T14:15:34.376Z,20.20
2023-08-07T14:18:36.052Z,20.30
2023-08-07T14:21:37.847Z,20.30
2023-08-07T14:24:39.751Z,20.20
2023-08-07T14:27:41.355Z,20.30
2023-08-07T14:30:43.066Z,20.30
2023-08-07T14:33:44.779Z,20.30
2023-08-07T14:36:46.447Z,20.40
2023-08-07T14:39:48.369Z,20.50
2023-08-07T14:42:50.182Z,20.60
2023-08-07T14:45:51.850Z,20.90
2023-08-07T14:48:53.532Z,21.10
2023-08-07T14:51:55.839Z,21.00
2023-08-07T14:54:58.543Z,21.10
2023-08-07T14:58:00.345Z,21.20
2023-08-07T15:01:02.061Z,21.50
2023-08-07T15:04:03.781Z,21.50
2023-08-07T15:07:05.965Z,21.40
2023-08-07T15:10:09.384Z,21.40
2023-08-07T15:13:11.121Z,21.20
2023-08-07T15:16:13.055Z,21.10
2023-08-07T15:19:14.874Z,21.00
2023-08-07T15:22:17.056Z,21.10
2023-08-07T15:25:19.019Z,21.20
2023-08-07T15:28:20.692Z,21.40
2023-08-07T15:31:22.467Z,21.50
2023-08-07T15:34:24.101Z,21.50
2023-08-07T15:37:25.829Z,21.20
2023-08-07T15:40:28.244Z,21.00
2023-08-07T15:43:29.966Z,20.90
2023-08-07T15:46:31.778Z,20.80
2023-08-07T15:49:33.495Z,20.90
2023-08-07T15:52:35.152Z,21.20
2023-08-07T15:55:37.000Z,21.40
2023-08-07T15:58:38.745Z,21.70
2023-08-07T16:01:40.449Z,22.20
2023-08-07T16:04:42.092Z,22.50
2023-08-07T16:07:43.891Z,22.90
2023-08-07T16:10:45.617Z,22.80
2023-08-07T16:13:47.453Z,22.60
2023-08-07T16:16:49.186Z,22.60
2023-08-07T16:19:50.814Z,22.90
2023-08-07T16:22:52.511Z,23.20
2023-08-07T16:25:54.194Z,23.60
2023-08-07T16:28:55.824Z,23.90
2023-08-07T16:31:57.792Z,24.10
2023-08-07T16:34:59.907Z,23.70
2023-08-07T16:38:01.529Z,23.50
2023-08-07T16:41:03.149Z,23.70
2023-08-07T16:44:04.893Z,24.00
2023-08-07T16:47:07.672Z,24.20
2023-08-07T16:50:10.035Z,23.80
2023-08-07T16:53:12.904Z,23.80
2023-08-07T16:56:14.683Z,23.60
2023-08-07T16:59:16.324Z,23.00
2023-08-07T17:02:18.064Z,23.00
2023-08-07T17:05:23.115Z,23.00
2023-08-07T17:08:24.816Z,23.40
2023-08-07T17:11:29.234Z,24.10
2023-08-07T17:14:30.919Z,24.30
2023-08-07T17:17:32.657Z,24.70
2023-08-07T17:20:34.413Z,24.60
2023-08-07T17:23:36.039Z,24.40
2023-08-07T17:26:37.760Z,23.60
2023-08-07T17:29:39.403Z,23.30
2023-08-07T17:32:41.090Z,23.80
2023-08-07T17:35:42.886Z,24.00
2023-08-07T17:38:44.743Z,24.30
2023-08-07T17:41:48.585Z,24.20
2023-08-07T17:44:51.489Z,23.20
2023-08-07T17:47:53.250Z,22.50
2023-08-07T17:50:55.075Z,21.70
2023-08-07T17:53:57.164Z,21.10
2023-08-07T17:56:59.109Z,20.70
2023-08-07T18:00:01.125Z,20.30
2023-08-07T18:03:04.291Z,20.30
2023-08-07T18:06:05.994Z,20.80
2023-08-07T18:09:08.739Z,21.20
2023-08-07T18:12:10.882Z,21.10
2023-08-07T18:15:12.630Z,20.90
2023-08-07T18:18:14.322Z,20.60
2023-08-07T18:21:16.008Z,20.20
2023-08-07T18:24:18.985Z,20.00
2023-08-07T18:27:23.144Z,19.80
2023-08-07T18:30:24.885Z,19.70
2023-08-07T18:33:27.926Z,19.50
2023-08-07T18:36:30.252Z,19.20
2023-08-07T18:39:31.992Z,19.00
2023-08-07T18:42:33.782Z,18.70
2023-08-07T18:45:35.861Z,18.40
2023-08-07T18:48:37.599Z,18.30
2023-08-07T18:51:39.417Z,18.20
2023-08-07T18:54:41.197Z,18.00
2023-08-07T18:57:43.049Z,17.90
2023-08-07T19:00:44.702Z,17.80
2023-08-07T19:03:46.702Z,17.70
2023-08-07T19:06:48.415Z,17.60
2023-08-07T19:09:50.067Z,17.60
2023-08-07T19:12:51.843Z,17.50
2023-08-07T19:15:55.317Z,17.40
2023-08-07T19:18:57.000Z,17.40
2023-08-07T19:21:58.673Z,17.30
2023-08-07T19:25:00.371Z,17.20
2023-08-07T19:28:02.077Z,17.10
2023-08-07T19:31:06.698Z,17.10
2023-08-07T19:34:10.834Z,17.00
2023-08-07T19:37:12.702Z,17.00
2023-08-07T19:40:14.602Z,17.00
2023-08-07T19:43:16.448Z,16.90
2023-08-07T19:46:18.456Z,16.90
2023-08-07T19:49:20.190Z,16.80
2023-08-07T19:52:24.041Z,16.80
2023-08-07T19:55:25.851Z,16.70
2023-08-07T19:58:27.510Z,16.70
2023-08-07T20:01:29.232Z,16.60
2023-08-07T20:04:31.189Z,16.60
2023-08-07T20:07:32.970Z,16.60
2023-08-07T20:10:34.829Z,16.50
2023-08-07T20:13:36.581Z,16.50
2023-08-07T20:16:38.290Z,16.40
2023-08-07T20:19:42.506Z,16.40
2023-08-07T20:22:44.203Z,16.30
2023-08-07T20:25:45.858Z,16.20
2023-08-07T20:28:47.519Z,16.20
2023-08-07T20:31:49.223Z,16.10
2023-08-07T20:34:50.858Z,16.00
2023-08-07T20:37:52.570Z,15.90
2023-08-07T20:40:54.175Z,15.80
2023-08-07T20:43:56.031Z,15.80
2023-08-07T20:46:57.727Z,15.80
2023-08-07T20:50:01.212Z,15.70
2023-08-07T20:53:02.909Z,15.70
2023-08-07T20:56:04.902Z,15.70
2023-08-07T20:59:06.560Z,15.70
2023-08-07T21:02:08.294Z,15.70
2023-08-07T21:05:10.033Z,15.60
2023-08-07T21:08:11.718Z,15.50
2023-08-07T21:11:13.333Z,15.50
2023-08-07T21:14:15.199Z,15.40
2023-08-07T21:17:16.838Z,15.20
2023-08-07T21:20:18.700Z,15.10
2023-08-07T21:23:20.307Z,15.10
2023-08-07T21:26:21.978Z,15.00
2023-08-07T21:29:23.685Z,14.90
2023-08-07T21:32:25.362Z,14.80
2023-08-07T21:35:27.050Z,14.70
2023-08-07T21:38:28.698Z,14.70
2023-08-07T21:41:31.491Z,14.60
2023-08-07T21:44:33.162Z,14.60
2023-08-07T21:47:35.077Z,14.60
2023-08-07T21:50:37.432Z,14.50
2023-08-07T21:53:39.168Z,14.50
2023-08-07T21:56:43.639Z,14.40
2023-08-07T21:59:45.463Z,14.40
2023-08-07T22:02:48.422Z,14.30
2023-08-07T22:05:52.504Z,14.20
2023-08-07T22:08:54.206Z,14.20
2023-08-07T22:11:56.153Z,14.10
2023-08-07T22:14:58.171Z,14.10
2023-08-07T22:17:59.863Z,14.10
2023-08-07T22:21:01.816Z,14.00
2023-08-07T22:24:03.555Z,14.00
2023-08-07T22:27:05.406Z,13.90
2023-08-07T22:30:08.775Z,13.90
2023-08-07T22:33:10.668Z,13.80
2023-08-07T22:36:14.935Z,13.80
2023-08-07T22:39:16.614Z,13.80
2023-08-07T22:42:18.235Z,13.80
2023-08-07T22:45:19.994Z,13.70
2023-08-07T22:48:21.653Z,13.70
2023-08-07T22:51:24.419Z,13.70
2023-08-07T22:54:26.192Z,13.60
2023-08-07T22:57:27.878Z,13.60
2023-08-07T23:00:29.584Z,13.60
2023-08-07T23:03:31.330Z,13.60
2023-08-07T23:06:33.624Z,13.60
2023-08-07T23:09:35.389Z,13.60
2023-08-07T23:12:37.058Z,13.60
2023-08-07T23:15:39.309Z,13.50
2023-08-07T23:18:41.050Z,13.60
2023-08-07T23:21:42.729Z,13.50
2023-08-07T23:24:44.547Z,13.50
2023-08-07T23:27:46.312Z,13.40
2023-08-07T23:30:47.955Z,13.50
2023-08-07T23:33:49.551Z,13.50
2023-08-07T23:36:51.237Z,13.50
2023-08-07T23:39:52.889Z,13.60
2023-08-07T23:42:54.577Z,13.60
2023-08-07T23:45:56.185Z,13.60
2023-08-07T23:49:00.352Z,13.60
2023-08-07T23:52:02.067Z,13.70
2023-08-07T23:55:04.685Z,13.70
2023-08-07T23:58:08.497Z,13.70
